Time;durP1;ratioP1;P1;durP2;ratioP2;P2;SDS_P1;SDS_P2;PMS_P1;PMS_P2;Temp;Humidity;BMP_temperature;BMP_pressure;BME280_temperature;BME280_humidity;BME280_pressure;Samples;Min_cycle;Max_cycle;Signal;HPM_P1;HPM_P2
2021/08/23 00:00:02;;;;;;;5.03;3.50;;;17.60;93.30;;;;;;4917683;29;20715;-88
2021/08/23 00:02:30;;;;;;;5.55;3.72;;;17.60;93.30;;;;;;4884269;29;20135;-88
2021/08/23 00:04:57;;;;;;;6.88;4.50;;;17.60;93.30;;;;;;4903866;29;20120;-89
2021/08/23 00:07:26;;;;;;;6.35;4.43;;;17.70;93.30;;;;;;4904006;29;20040;-88
2021/08/23 00:09:54;;;;;;;5.80;3.80;;;17.70;93.30;;;;;;4893023;29;20044;-88
2021/08/23 00:12:21;;;;;;;6.68;4.70;;;17.70;93.20;;;;;;4913417;29;20044;-89
2021/08/23 00:14:49;;;;;;;5.35;3.50;;;17.70;93.20;;;;;;4905506;29;20044;-88
2021/08/23 00:17:17;;;;;;;6.47;4.35;;;17.70;93.20;;;;;;4902565;29;20083;-88
2021/08/23 00:19:44;;;;;;;4.10;2.78;;;17.80;93.20;;;;;;4918719;29;20107;-88
2021/08/23 00:22:31;;;;;;;4.85;3.42;;;17.70;93.10;;;;;;4902861;29;20052;-89
2021/08/23 00:25:00;;;;;;;5.38;3.38;;;17.70;93.40;;;;;;4914971;29;20074;-88
2021/08/23 00:27:29;;;;;;;5.38;2.70;;;17.60;93.20;;;;;;4903054;29;20103;-89
2021/08/23 00:29:57;;;;;;;4.38;2.85;;;17.60;93.30;;;;;;4889949;29;20072;-88
2021/08/23 00:32:24;;;;;;;6.95;3.40;;;17.60;93.30;;;;;;4903572;29;20492;-88
2021/08/23 00:34:52;;;;;;;5.43;3.33;;;17.60;93.30;;;;;;4913498;29;20052;-88
2021/08/23 00:37:20;;;;;;;5.45;3.38;;;17.60;93.30;;;;;;4887158;29;20048;-88
2021/08/23 00:39:47;;;;;;;8.15;4.35;;;17.60;93.30;;;;;;4900807;29;20788;-89
2021/08/23 00:42:15;;;;;;;5.85;3.70;;;17.60;93.40;;;;;;4926014;29;20046;-88
2021/08/23 00:44:42;;;;;;;6.90;4.63;;;17.50;93.40;;;;;;4902635;29;20067;-89
2021/08/23 00:47:10;;;;;;;6.78;4.00;;;17.50;93.40;;;;;;4913141;29;20056;-89
2021/08/23 00:49:37;;;;;;;7.20;4.20;;;17.50;93.40;;;;;;4901967;29;20059;-89
2021/08/23 00:52:06;;;;;;;6.85;4.68;;;17.50;93.40;;;;;;4904456;29;20048;-89
2021/08/23 00:54:35;;;;;;;6.40;3.85;;;17.50;93.40;;;;;;4908523;29;20044;-89
2021/08/23 00:57:03;;;;;;;6.10;3.85;;;17.60;93.40;;;;;;4882494;29;20040;-88
2021/08/23 00:59:34;;;;;;;6.18;3.60;;;17.60;93.40;;;;;;4902525;29;20058;-88
2021/08/23 01:02:14;;;;;;;4.30;2.70;;;17.60;93.30;;;;;;4903434;29;20051;-89
2021/08/23 01:04:49;;;;;;;7.25;5.03;;;17.60;93.30;;;;;;4917703;29;20048;-87
2021/08/23 01:07:23;;;;;;;5.47;3.28;;;17.60;93.30;;;;;;4893765;29;20480;-88
2021/08/23 01:10:01;;;;;;;5.97;4.03;;;17.70;93.30;;;;;;4918469;29;20068;-87
2021/08/23 01:12:29;;;;;;;4.72;3.28;;;17.60;93.20;;;;;;4894070;29;20501;-88
2021/08/23 01:14:58;;;;;;;4.68;3.05;;;17.60;93.30;;;;;;4889867;29;20049;-88
2021/08/23 01:17:25;;;;;;;4.90;2.95;;;17.60;93.30;;;;;;4916717;29;20092;-87
2021/08/23 01:19:57;;;;;;;6.78;4.07;;;17.70;93.30;;;;;;4902045;29;20048;-87
2021/08/23 01:22:26;;;;;;;4.15;2.58;;;17.70;93.30;;;;;;4916348;29;20056;-88
2021/08/23 01:24:54;;;;;;;5.30;2.88;;;17.70;93.30;;;;;;4902253;29;20045;-87
2021/08/23 01:27:25;;;;;;;5.80;3.65;;;17.70;93.20;;;;;;4917443;29;20071;-87
2021/08/23 01:30:08;;;;;;;7.80;5.18;;;17.70;93.30;;;;;;4916854;29;20076;-87
2021/08/23 01:32:36;;;;;;;10.13;7.00;;;17.80;93.20;;;;;;4917411;29;20066;-87
2021/08/23 01:35:05;;;;;;;7.20;4.60;;;17.70;93.30;;;;;;4916607;29;20048;-87
2021/08/23 01:37:35;;;;;;;8.15;5.65;;;17.70;93.20;;;;;;4901271;29;20084;-87
2021/08/23 01:40:05;;;;;;;8.75;6.70;;;17.80;93.30;;;;;;4888289;29;20048;-88
2021/08/23 01:42:33;;;;;;;9.30;5.93;;;17.80;93.20;;;;;;4917132;29;20477;-88
2021/08/23 01:45:00;;;;;;;8.52;5.95;;;17.80;93.20;;;;;;4888412;29;20045;-88
2021/08/23 01:47:27;;;;;;;10.55;7.15;;;17.80;93.20;;;;;;4885326;29;20437;-86
2021/08/23 01:49:55;;;;;;;6.57;4.47;;;17.80;93.30;;;;;;4909794;29;20491;-86
2021/08/23 01:52:22;;;;;;;9.20;6.70;;;17.80;93.20;;;;;;4892463;29;20044;-87
2021/08/23 01:54:49;;;;;;;8.20;5.75;;;17.80;93.20;;;;;;4910147;29;20056;-87
2021/08/23 01:57:17;;;;;;;10.07;6.50;;;17.80;93.20;;;;;;4887953;29;20048;-88
2021/08/23 01:59:48;;;;;;;10.70;6.28;;;17.80;93.20;;;;;;4900110;29;20060;-86
2021/08/23 02:02:15;;;;;;;9.93;5.90;;;17.80;93.20;;;;;;4917248;29;20048;-87
2021/08/23 02:04:43;;;;;;;11.30;7.07;;;17.80;93.20;;;;;;4911167;29;20055;-88
2021/08/23 02:07:12;;;;;;;9.60;6.05;;;17.80;93.20;;;;;;4896368;29;20052;-88
2021/08/23 02:09:39;;;;;;;12.45;7.13;;;17.80;93.30;;;;;;4900023;29;20059;-87
2021/08/23 02:12:06;;;;;;;14.27;7.25;;;17.80;93.30;;;;;;4884598;29;20052;-87
2021/08/23 02:14:33;;;;;;;9.23;5.97;;;17.90;93.30;;;;;;4898929;29;20076;-87
2021/08/23 02:17:00;;;;;;;10.13;6.13;;;17.90;93.30;;;;;;4900426;29;20052;-87
2021/08/23 02:19:27;;;;;;;11.70;7.63;;;17.90;93.30;;;;;;4904265;29;20072;-86
2021/08/23 02:21:55;;;;;;;18.40;9.52;;;17.90;93.30;;;;;;4894752;29;20500;-86
2021/08/23 02:24:23;;;;;;;12.35;7.63;;;17.90;93.30;;;;;;4900897;29;20051;-87
2021/08/23 02:26:51;;;;;;;14.93;8.30;;;17.90;93.30;;;;;;4886077;29;20544;-87
2021/08/23 02:29:18;;;;;;;13.38;7.47;;;17.90;93.30;;;;;;4896763;29;20909;-87
2021/08/23 02:31:45;;;;;;;14.45;8.73;;;17.90;93.30;;;;;;4916266;29;20428;-87
2021/08/23 02:34:12;;;;;;;12.25;7.80;;;17.90;93.30;;;;;;4915677;29;20040;-87
2021/08/23 02:36:39;;;;;;;12.18;7.43;;;17.90;93.30;;;;;;4910599;29;20072;-87
2021/08/23 02:39:06;;;;;;;10.23;6.70;;;17.90;93.30;;;;;;4905872;29;20048;-86
2021/08/23 02:41:33;;;;;;;8.07;4.82;;;17.90;93.30;;;;;;4897759;29;20068;-87
2021/08/23 02:44:01;;;;;;;8.18;5.38;;;17.90;93.30;;;;;;4885345;29;20040;-87
2021/08/23 02:46:28;;;;;;;7.47;5.13;;;18.00;93.30;;;;;;4901088;29;20503;-87
2021/08/23 02:48:56;;;;;;;8.05;5.70;;;18.00;93.30;;;;;;4901359;29;20056;-86
2021/08/23 02:51:23;;;;;;;7.30;4.78;;;18.00;93.20;;;;;;4916325;29;20095;-86
2021/08/23 02:53:50;;;;;;;7.68;5.38;;;18.00;93.20;;;;;;4909145;29;20076;-87
2021/08/23 02:56:17;;;;;;;8.30;4.53;;;18.00;93.30;;;;;;4897721;29;20056;-87
2021/08/23 02:58:44;;;;;;;7.55;4.80;;;18.00;93.30;;;;;;4904241;29;20461;-87
2021/08/23 03:01:11;;;;;;;6.82;4.18;;;18.00;93.30;;;;;;4900039;29;20049;-87
2021/08/23 03:03:40;;;;;;;6.50;4.00;;;17.90;93.30;;;;;;4900930;29;20044;-87
2021/08/23 03:06:07;;;;;;;8.10;4.45;;;17.90;93.30;;;;;;4900357;29;20076;-87
2021/08/23 03:08:34;;;;;;;7.32;4.30;;;17.90;93.30;;;;;;4886031;29;20516;-87
2021/08/23 03:11:07;;;;;;;7.20;3.78;;;17.90;93.30;;;;;;4919805;29;20075;-87
2021/08/23 03:13:34;;;;;;;5.70;3.50;;;17.90;93.30;;;;;;4905946;29;20509;-87
2021/08/23 03:16:01;;;;;;;7.35;4.05;;;17.90;93.30;;;;;;4919924;29;20071;-86
2021/08/23 03:18:28;;;;;;;7.78;5.28;;;17.90;93.30;;;;;;4918954;29;20109;-86
2021/08/23 03:20:55;;;;;;;9.90;6.18;;;17.90;93.30;;;;;;4900452;29;20077;-87
2021/08/23 03:23:22;;;;;;;9.88;6.43;;;17.90;93.30;;;;;;4900218;29;20516;-86
2021/08/23 03:25:49;;;;;;;9.77;5.65;;;17.90;93.30;;;;;;4891870;29;20044;-87
2021/08/23 03:29:03;;;;;;;11.27;6.80;;;17.90;93.30;;;;;;4904281;29;20049;-86
2021/08/23 03:31:34;;;;;;;11.88;7.28;;;17.90;93.20;;;;;;4919182;29;20409;-86
2021/08/23 03:34:01;;;;;;;13.68;8.13;;;17.80;93.30;;;;;;4891944;29;20139;-87
2021/08/23 03:36:28;;;;;;;13.45;8.70;;;17.80;93.40;;;;;;4910368;29;20052;-87
2021/08/23 03:38:58;;;;;;;16.52;9.85;;;17.80;93.40;;;;;;4907783;29;20048;-87
2021/08/23 03:41:26;;;;;;;15.73;9.88;;;17.70;93.30;;;;;;4905427;29;20100;-87
2021/08/23 03:43:53;;;;;;;13.43;8.02;;;17.70;93.40;;;;;;4918812;29;20040;-87
2021/08/23 03:46:20;;;;;;;13.05;7.00;;;17.70;93.40;;;;;;4902874;29;20044;-87
2021/08/23 03:48:47;;;;;;;11.50;6.60;;;17.70;93.40;;;;;;4899404;29;20074;-87
2021/08/23 03:51:15;;;;;;;9.18;5.72;;;17.60;93.40;;;;;;4885749;29;20086;-87
2021/08/23 03:53:42;;;;;;;12.48;6.95;;;17.60;93.40;;;;;;4886829;29;20048;-87
2021/08/23 03:56:09;;;;;;;12.10;6.50;;;17.60;93.50;;;;;;4903276;29;20052;-87
2021/08/23 03:58:36;;;;;;;11.00;6.32;;;17.50;93.40;;;;;;4902430;29;20056;-87
2021/08/23 04:01:03;;;;;;;11.15;7.22;;;17.50;93.40;;;;;;4890380;29;20052;-86
2021/08/23 04:03:34;;;;;;;12.77;7.55;;;17.50;93.40;;;;;;4902418;29;20134;-86
2021/08/23 04:06:01;;;;;;;12.80;7.70;;;17.50;93.40;;;;;;4907283;29;20044;-87
2021/08/23 04:08:28;;;;;;;12.75;7.20;;;17.50;93.50;;;;;;4904403;29;20041;-87
2021/08/23 04:10:55;;;;;;;14.68;7.82;;;17.50;93.40;;;;;;4895510;29;20056;-87
2021/08/23 04:13:22;;;;;;;10.93;6.75;;;17.40;93.40;;;;;;4903452;29;20044;-87
2021/08/23 04:15:49;;;;;;;8.95;5.40;;;17.40;93.40;;;;;;4896588;29;20112;-87
2021/08/23 04:18:16;;;;;;;10.38;5.90;;;17.40;93.40;;;;;;4906500;29;20462;-86
2021/08/23 04:20:43;;;;;;;11.02;6.90;;;17.50;93.50;;;;;;4901536;29;20099;-87
2021/08/23 04:23:10;;;;;;;9.60;5.75;;;17.40;93.40;;;;;;4895495;29;20044;-87
2021/08/23 04:25:37;;;;;;;10.02;6.30;;;17.40;93.40;;;;;;4887326;29;20044;-87
2021/08/23 04:28:04;;;;;;;14.80;8.27;;;17.50;93.40;;;;;;4903178;29;20060;-87
2021/08/23 04:30:31;;;;;;;15.75;8.52;;;17.50;93.40;;;;;;4902243;29;20067;-87
2021/08/23 04:32:58;;;;;;;14.02;7.53;;;17.50;93.40;;;;;;4902564;29;20493;-87
2021/08/23 04:35:25;;;;;;;12.73;7.30;;;17.50;93.40;;;;;;4900016;29;20520;-86
2021/08/23 04:37:52;;;;;;;10.85;6.30;;;17.50;93.40;;;;;;4899244;29;20045;-87
2021/08/23 04:40:20;;;;;;;14.55;9.00;;;17.50;93.30;;;;;;4902949;29;20501;-87
2021/08/23 04:42:47;;;;;;;11.43;6.90;;;17.50;93.30;;;;;;4886821;29;20560;-87
2021/08/23 04:45:14;;;;;;;16.80;9.77;;;17.40;93.30;;;;;;4908817;29;20107;-87
2021/08/23 04:47:41;;;;;;;9.50;5.55;;;17.40;93.30;;;;;;4899844;29;20048;-87
2021/08/23 04:50:09;;;;;;;12.13;6.53;;;17.40;93.30;;;;;;4871477;29;20052;-87
2021/08/23 04:52:43;;;;;;;12.38;7.30;;;17.40;93.40;;;;;;4872635;29;20052;-87
2021/08/23 04:55:58;;;;;;;12.73;7.13;;;17.40;93.30;;;;;;4912761;29;20049;-87
2021/08/23 04:58:41;;;;;;;13.35;7.18;;;17.40;93.30;;;;;;4878438;29;20107;-87
2021/08/23 05:01:10;;;;;;;10.68;6.13;;;17.30;93.40;;;;;;4886196;29;20058;-88
2021/08/23 05:03:40;;;;;;;10.63;5.70;;;17.30;93.60;;;;;;4901859;29;20111;-87
2021/08/23 05:06:07;;;;;;;11.18;6.57;;;17.30;93.30;;;;;;4902493;29;20096;-87
2021/08/23 05:08:34;;;;;;;12.02;6.88;;;17.40;93.30;;;;;;4901528;29;20052;-87
2021/08/23 05:11:01;;;;;;;11.23;6.88;;;17.30;93.30;;;;;;4902928;29;20066;-87
2021/08/23 05:13:28;;;;;;;11.38;6.68;;;17.30;93.30;;;;;;4901589;29;20040;-87
2021/08/23 05:15:56;;;;;;;10.52;6.07;;;17.30;93.30;;;;;;4903767;29;20058;-87
2021/08/23 05:18:24;;;;;;;11.93;6.32;;;17.30;93.30;;;;;;4911452;29;20043;-86
2021/08/23 05:20:51;;;;;;;14.38;6.20;;;17.30;93.30;;;;;;4881070;29;20049;-83
2021/08/23 05:23:18;;;;;;;12.65;6.47;;;17.30;93.20;;;;;;4915701;29;20055;-81
2021/08/23 05:25:45;;;;;;;11.27;5.70;;;17.30;93.50;;;;;;4901798;29;20059;-82
2021/08/23 05:28:12;;;;;;;13.30;7.13;;;17.30;93.20;;;;;;4872806;29;20107;-82
2021/08/23 05:30:39;;;;;;;12.40;7.20;;;17.30;93.20;;;;;;4900186;29;20043;-82
2021/08/23 05:33:06;;;;;;;13.63;7.07;;;17.30;93.20;;;;;;4900352;29;20051;-82
2021/08/23 05:35:34;;;;;;;12.25;6.75;;;17.30;93.20;;;;;;4916337;29;20398;-81
2021/08/23 05:38:01;;;;;;;10.95;6.43;;;17.30;93.20;;;;;;4894556;29;20087;-82
2021/08/23 05:40:32;;;;;;;12.43;6.32;;;17.30;93.20;;;;;;4900426;29;20469;-81
2021/08/23 05:43:01;;;;;;;9.93;5.28;;;17.30;93.20;;;;;;4898914;29;20504;-83
2021/08/23 05:45:29;;;;;;;10.73;6.35;;;17.30;93.20;;;;;;4900908;29;20044;-81
2021/08/23 05:47:56;;;;;;;8.50;5.60;;;17.30;93.20;;;;;;4900620;29;20119;-82
2021/08/23 05:50:23;;;;;;;11.30;7.35;;;17.30;93.10;;;;;;4897595;29;20056;-82
2021/08/23 05:52:51;;;;;;;11.90;7.57;;;17.20;93.10;;;;;;4884990;29;20048;-83
2021/08/23 05:55:18;;;;;;;10.77;6.18;;;17.20;93.10;;;;;;4901134;29;20082;-82
2021/08/23 05:57:45;;;;;;;9.90;6.30;;;17.30;93.20;;;;;;4914317;29;20493;-82
2021/08/23 06:00:39;;;;;;;8.32;5.30;;;17.30;93.10;;;;;;4895723;29;20153;-81
2021/08/23 06:03:06;;;;;;;7.93;4.70;;;17.30;93.10;;;;;;4918518;29;20095;-81
2021/08/23 06:05:36;;;;;;;8.10;4.65;;;17.30;93.10;;;;;;4897185;29;20071;-81
2021/08/23 06:08:11;;;;;;;7.22;4.93;;;17.30;93.10;;;;;;4899292;29;20044;-82
2021/08/23 06:10:52;;;;;;;10.07;5.80;;;17.40;93.00;;;;;;4897525;29;20397;-82
2021/08/23 06:13:33;;;;;;;9.27;6.05;;;17.40;93.00;;;;;;4927081;29;20063;-81
2021/08/23 06:16:00;;;;;;;8.60;5.18;;;17.40;93.00;;;;;;4900268;29;20508;-81
2021/08/23 06:18:27;;;;;;;12.32;7.53;;;17.40;93.00;;;;;;4896489;29;20072;-81
2021/08/23 06:20:54;;;;;;;10.18;5.97;;;17.40;93.00;;;;;;4899944;29;20378;-81
2021/08/23 06:23:21;;;;;;;12.60;6.35;;;17.40;93.00;;;;;;4900080;29;20096;-81
2021/08/23 06:25:48;;;;;;;8.93;5.88;;;17.40;92.90;;;;;;4916045;29;20107;-81
2021/08/23 06:28:15;;;;;;;11.32;6.25;;;17.40;92.90;;;;;;4922743;29;20067;-81
2021/08/23 06:30:42;;;;;;;10.65;6.25;;;17.40;92.90;;;;;;4884749;29;20048;-81
2021/08/23 06:33:10;;;;;;;7.60;5.20;;;17.50;92.80;;;;;;4897429;29;20501;-81
2021/08/23 06:35:37;;;;;;;6.80;4.55;;;17.50;92.80;;;;;;4898909;29;20873;-81
2021/08/23 06:38:03;;;;;;;7.65;4.53;;;17.60;92.70;;;;;;4884830;29;20504;-81
2021/08/23 06:40:30;;;;;;;9.10;5.15;;;17.70;93.00;;;;;;4899250;29;20050;-81
2021/08/23 06:43:01;;;;;;;8.85;5.90;;;17.70;92.70;;;;;;4897171;29;20048;-81
2021/08/23 06:45:28;;;;;;;8.43;5.13;;;17.80;92.60;;;;;;4918173;29;20307;-81
2021/08/23 06:47:55;;;;;;;7.38;3.80;;;17.80;92.60;;;;;;4906631;29;20139;-81
2021/08/23 06:50:22;;;;;;;7.95;4.57;;;17.90;92.50;;;;;;4913509;29;20036;-82
2021/08/23 06:52:54;;;;;;;8.48;4.60;;;18.00;92.50;;;;;;4902545;29;20051;-81
2021/08/23 07:04:28;;;;;;;6.55;3.63;;;18.40;92.10;;;;;;4863599;29;20078;-82
2021/08/23 07:06:55;;;;;;;5.95;3.40;;;18.40;92.00;;;;;;4869327;29;20050;-82
2021/08/23 07:09:22;;;;;;;7.25;3.85;;;18.40;92.00;;;;;;4876124;29;20049;-82
2021/08/23 07:11:49;;;;;;;4.75;2.88;;;18.40;91.90;;;;;;4884826;29;20045;-81
2021/08/23 07:14:16;;;;;;;5.32;3.10;;;18.30;92.00;;;;;;4870442;29;20759;-83
2021/08/23 07:16:46;;;;;;;4.90;2.95;;;18.30;92.00;;;;;;4903497;29;20059;-82
2021/08/23 07:19:39;;;;;;;7.82;3.65;;;18.30;92.00;;;;;;4888266;29;20104;-84
2021/08/23 07:22:22;;;;;;;5.07;2.63;;;18.30;92.00;;;;;;4876804;29;20509;-83
2021/08/23 07:24:50;;;;;;;5.70;3.25;;;18.30;92.00;;;;;;4885883;29;20458;-81
2021/08/23 07:27:18;;;;;;;6.18;3.33;;;18.30;91.90;;;;;;4886591;29;20044;-83
2021/08/23 07:29:45;;;;;;;5.80;3.03;;;18.30;91.90;;;;;;4900755;29;20056;-83
2021/08/23 07:32:13;;;;;;;5.22;2.60;;;18.30;91.90;;;;;;4914717;29;20055;-83
2021/08/23 07:34:44;;;;;;;5.97;2.90;;;18.30;91.90;;;;;;4870973;29;20044;-83
2021/08/23 07:37:14;;;;;;;6.30;2.97;;;18.30;91.90;;;;;;4899850;29;20053;-85
2021/08/23 07:39:43;;;;;;;5.95;2.97;;;18.30;91.90;;;;;;4884803;29;20055;-81
2021/08/23 07:42:10;;;;;;;4.47;2.17;;;18.30;91.90;;;;;;4899147;29;20140;-85
2021/08/23 07:44:38;;;;;;;5.88;2.72;;;18.40;91.90;;;;;;4884185;29;20044;-83
2021/08/23 07:47:05;;;;;;;6.03;3.17;;;18.40;91.70;;;;;;4884057;29;20068;-83
2021/08/23 07:49:34;;;;;;;4.85;2.60;;;18.50;91.70;;;;;;4879342;29;20068;-84
2021/08/23 07:52:02;;;;;;;5.63;3.10;;;18.50;91.70;;;;;;4884046;29;20100;-84
2021/08/23 07:54:32;;;;;;;4.22;2.80;;;18.50;91.60;;;;;;4898208;29;20109;-84
2021/08/23 07:56:59;;;;;;;4.47;2.70;;;18.60;91.50;;;;;;4883894;29;20048;-83
2021/08/23 07:59:26;;;;;;;6.18;3.63;;;18.70;91.40;;;;;;4894905;29;20051;-84
2021/08/23 08:01:53;;;;;;;4.53;2.35;;;18.80;91.30;;;;;;4911070;29;20044;-82
2021/08/23 08:04:20;;;;;;;3.25;1.73;;;18.80;91.30;;;;;;4905714;29;20092;-83
2021/08/23 08:06:47;;;;;;;4.57;2.03;;;18.80;91.30;;;;;;4914785;29;20070;-83
2021/08/23 08:09:14;;;;;;;4.85;1.88;;;18.80;91.20;;;;;;4886671;29;20048;-84
2021/08/23 08:11:41;;;;;;;5.10;1.95;;;18.80;91.20;;;;;;4886067;29;20055;-84
2021/08/23 08:14:08;;;;;;;5.68;2.30;;;18.80;91.20;;;;;;4885646;29;20052;-83
2021/08/23 08:16:36;;;;;;;4.32;1.60;;;18.80;91.20;;;;;;4901790;29;20059;-83
2021/08/23 08:19:03;;;;;;;4.38;2.03;;;18.90;91.20;;;;;;4914824;29;20051;-83
2021/08/23 08:21:30;;;;;;;3.88;1.50;;;19.00;91.20;;;;;;4901830;29;20040;-82
2021/08/23 08:23:59;;;;;;;3.67;1.40;;;19.20;91.10;;;;;;4884792;29;20493;-83
2021/08/23 08:26:26;;;;;;;3.83;1.88;;;19.30;90.90;;;;;;4901549;29;20039;-82
2021/08/23 08:28:53;;;;;;;4.07;2.30;;;19.30;90.80;;;;;;4901269;29;20040;-82
2021/08/23 08:31:20;;;;;;;3.70;1.85;;;19.30;90.80;;;;;;4916761;29;20111;-82
2021/08/23 08:33:47;;;;;;;3.45;1.92;;;19.30;90.70;;;;;;4899582;29;20059;-83
2021/08/23 08:36:14;;;;;;;4.15;2.53;;;19.30;90.70;;;;;;4900973;29;20052;-82
2021/08/23 08:38:42;;;;;;;3.50;1.73;;;19.30;90.60;;;;;;4885384;29;20051;-83
2021/08/23 08:41:09;;;;;;;4.45;1.73;;;19.40;90.60;;;;;;4900670;29;20044;-82
2021/08/23 08:43:37;;;;;;;3.42;1.65;;;19.50;90.40;;;;;;4915309;29;20040;-82
2021/08/23 08:46:05;;;;;;;3.03;1.75;;;19.60;90.40;;;;;;4917044;29;20449;-82
2021/08/23 08:48:33;;;;;;;2.83;1.05;;;19.70;90.30;;;;;;4918185;29;20083;-82
2021/08/23 08:51:01;;;;;;;3.38;1.40;;;19.80;90.20;;;;;;4900624;29;20461;-84
2021/08/23 08:53:28;;;;;;;1.65;0.73;;;19.80;90.10;;;;;;4917185;29;20508;-84
2021/08/23 08:55:56;;;;;;;2.35;1.02;;;19.90;90.10;;;;;;4898511;29;20056;-84
2021/08/23 08:59:01;;;;;;;2.78;0.95;;;19.90;90.00;;;;;;4900890;29;20047;-88
2021/08/23 09:01:29;;;;;;;1.92;0.93;;;20.00;90.00;;;;;;4896606;29;20426;-82
2021/08/23 09:04:02;;;;;;;3.22;0.82;;;20.00;90.00;;;;;;4912947;29;20449;-84
2021/08/23 09:06:38;;;;;;;4.28;0.80;;;20.00;89.90;;;;;;4884978;29;20576;-84
2021/08/23 09:09:12;;;;;;;2.42;1.13;;;20.00;90.00;;;;;;4914857;29;20577;-84
2021/08/23 09:11:42;;;;;;;4.22;1.70;;;20.10;89.50;;;;;;4911710;29;20048;-84
2021/08/23 09:14:09;;;;;;;2.33;1.05;;;20.00;89.10;;;;;;4914332;29;20405;-83
2021/08/23 09:16:39;;;;;;;3.90;1.30;;;20.00;89.30;;;;;;4910533;29;20125;-84
2021/08/23 09:19:24;;;;;;;2.85;1.25;;;20.00;89.20;;;;;;4915558;29;20040;-85
2021/08/23 09:22:12;;;;;;;3.45;1.33;;;20.10;88.90;;;;;;4926143;29;20080;-85
2021/08/23 09:24:40;;;;;;;2.83;1.20;;;20.10;88.80;;;;;;4913578;29;20044;-83
2021/08/23 09:27:13;;;;;;;3.85;1.55;;;20.20;88.80;;;;;;4914169;29;20124;-84
2021/08/23 09:30:04;;;;;;;3.97;1.83;;;20.20;88.30;;;;;;4916465;29;20047;-84
2021/08/23 09:32:51;;;;;;;3.55;1.40;;;20.30;88.30;;;;;;4924285;29;20040;-84
2021/08/23 09:35:36;;;;;;;3.83;1.33;;;20.40;87.90;;;;;;4911127;29;20104;-86
2021/08/23 09:38:11;;;;;;;2.45;1.20;;;20.50;87.50;;;;;;4893495;29;20044;-82
2021/08/23 09:40:38;;;;;;;3.08;1.20;;;20.50;87.50;;;;;;4900608;29;20048;-87
2021/08/23 09:43:11;;;;;;;2.33;1.10;;;20.50;88.20;;;;;;4908661;29;20055;-83
2021/08/23 09:46:00;;;;;;;1.85;1.00;;;20.60;87.70;;;;;;4898107;29;20045;-83
2021/08/23 09:48:51;;;;;;;1.95;1.40;;;20.80;87.30;;;;;;4927644;29;20127;-83
2021/08/23 09:51:27;;;;;;;4.78;1.52;;;21.00;86.20;;;;;;4909789;29;20044;-83
2021/08/23 09:54:11;;;;;;;2.20;1.13;;;21.00;86.20;;;;;;4914481;29;20199;-83
2021/08/23 09:56:53;;;;;;;2.53;1.00;;;21.10;86.00;;;;;;4900065;29;20054;-84
2021/08/23 09:59:21;;;;;;;2.57;1.10;;;21.10;85.90;;;;;;4915757;29;20052;-84
2021/08/23 10:01:51;;;;;;;1.83;1.00;;;21.10;86.00;;;;;;4898797;29;20048;-82
2021/08/23 10:04:19;;;;;;;1.70;0.90;;;21.10;86.10;;;;;;4920924;29;20051;-83
2021/08/23 10:06:48;;;;;;;1.80;0.80;;;21.10;85.50;;;;;;4897784;29;20071;-82
2021/08/23 10:09:21;;;;;;;2.10;0.80;;;21.10;85.30;;;;;;4913770;29;20044;-85
2021/08/23 10:11:53;;;;;;;1.73;0.82;;;21.30;85.10;;;;;;4898501;29;21388;-84
2021/08/23 10:14:20;;;;;;;1.35;0.60;;;21.40;85.00;;;;;;4900167;29;20044;-83
2021/08/23 10:16:49;;;;;;;2.28;1.00;;;21.50;84.80;;;;;;4888759;29;20067;-82
2021/08/23 10:19:16;;;;;;;1.40;0.70;;;21.60;84.20;;;;;;4914183;29;20068;-84
2021/08/23 10:21:46;;;;;;;1.13;0.73;;;21.50;84.20;;;;;;4913593;29;20044;-82
2021/08/23 10:24:27;;;;;;;1.50;0.63;;;21.40;84.40;;;;;;4910580;29;20084;-83
2021/08/23 10:26:56;;;;;;;1.73;0.80;;;21.30;84.60;;;;;;4914757;29;20044;-82
2021/08/23 10:29:23;;;;;;;4.68;2.55;;;21.30;84.80;;;;;;4900736;29;20131;-80
2021/08/23 10:31:50;;;;;;;2.03;0.60;;;21.20;84.50;;;;;;4911008;29;20066;-80
2021/08/23 10:34:20;;;;;;;2.13;0.85;;;21.20;84.60;;;;;;4911345;29;20036;-81
2021/08/23 10:36:49;;;;;;;1.48;0.70;;;21.20;84.50;;;;;;4899879;29;20096;-81
2021/08/23 10:39:24;;;;;;;2.25;0.98;;;21.30;84.50;;;;;;4914669;29;20449;-82
2021/08/23 10:41:56;;;;;;;2.10;0.82;;;21.40;84.40;;;;;;4908694;29;20493;-84
2021/08/23 10:44:28;;;;;;;;;;;21.60;84.00;;;;;;4896776;29;20040;-83
2021/08/23 10:47:15;;;;;;;3.78;1.10;;;21.70;84.10;;;;;;4914605;29;19923;-81
2021/08/23 10:49:45;;;;;;;1.80;0.90;;;21.70;83.40;;;;;;4915064;29;20048;-82
2021/08/23 10:52:15;;;;;;;1.85;0.82;;;21.60;83.50;;;;;;4894905;29;20048;-90
2021/08/23 10:54:48;;;;;;;2.30;0.90;;;21.70;83.00;;;;;;4907904;29;20056;-82
2021/08/23 10:57:21;;;;;;;3.10;0.90;;;21.90;82.20;;;;;;4908240;29;20056;-77
2021/08/23 10:59:53;;;;;;;5.00;1.00;;;22.20;81.20;;;;;;4915798;29;20397;-80
2021/08/23 11:02:20;;;;;;;1.92;0.80;;;22.50;80.80;;;;;;4915925;29;20063;-81
2021/08/23 11:04:57;;;;;;;2.20;0.80;;;22.50;80.70;;;;;;4912819;29;20139;-81
2021/08/23 11:07:26;;;;;;;1.75;0.70;;;22.70;80.30;;;;;;4898535;29;20111;-79
2021/08/23 11:10:17;;;;;;;1.63;0.60;;;23.20;79.30;;;;;;4900065;29;20057;-82
2021/08/23 11:12:48;;;;;;;1.98;0.68;;;23.40;77.90;;;;;;4903929;29;20512;-80
2021/08/23 11:15:20;;;;;;;1.63;0.73;;;23.10;78.80;;;;;;4912043;29;20056;-82
2021/08/23 11:17:55;;;;;;;1.58;0.70;;;22.90;79.40;;;;;;4914464;29;20850;-78
2021/08/23 11:20:29;;;;;;;1.00;0.50;;;22.80;79.70;;;;;;4913507;29;20068;-80
2021/08/23 11:22:57;;;;;;;2.58;0.80;;;22.60;79.90;;;;;;4914715;29;20044;-78
2021/08/23 11:25:43;;;;;;;1.92;0.73;;;22.40;80.10;;;;;;4911818;29;20099;-79
2021/08/23 11:28:16;;;;;;;2.33;0.93;;;22.30;80.00;;;;;;4911907;29;20112;-79
2021/08/23 11:30:45;;;;;;;1.98;0.50;;;22.20;80.40;;;;;;4909802;29;20055;-80
2021/08/23 11:33:23;;;;;;;2.28;0.63;;;22.50;80.40;;;;;;4918894;29;20043;-82
2021/08/23 11:35:50;;;;;;;1.98;1.00;;;23.40;77.90;;;;;;4916739;29;20172;-85
2021/08/23 11:38:17;;;;;;;2.63;0.70;;;23.80;75.90;;;;;;4899124;29;20128;-83
2021/08/23 11:40:46;;;;;;;2.53;0.82;;;24.10;75.40;;;;;;4901756;29;20486;-83
2021/08/23 11:43:14;;;;;;;1.38;0.70;;;24.40;74.40;;;;;;4900555;29;20052;-84
2021/08/23 11:45:44;;;;;;;2.05;0.60;;;24.40;74.30;;;;;;4900274;29;20052;-82
2021/08/23 11:48:11;;;;;;;1.02;0.50;;;24.20;74.80;;;;;;4902396;29;20488;-81
2021/08/23 11:50:38;;;;;;;1.25;0.57;;;24.40;75.70;;;;;;4901585;29;20052;-81
2021/08/23 11:53:08;;;;;;;2.65;0.98;;;24.80;74.10;;;;;;4883740;29;20689;-84
2021/08/23 11:55:42;;;;;;;1.50;0.50;;;25.30;73.10;;;;;;4917306;29;20543;-84
2021/08/23 11:58:14;;;;;;;1.33;0.52;;;25.80;71.90;;;;;;4914964;29;20044;-82
2021/08/23 12:00:44;;;;;;;3.03;0.63;;;26.20;71.20;;;;;;4917336;29;20052;-78
2021/08/23 12:03:14;;;;;;;1.95;0.70;;;25.50;71.90;;;;;;4899897;29;20574;-77
2021/08/23 12:05:42;;;;;;;3.42;0.90;;;25.10;72.80;;;;;;4906689;29;20052;-77
2021/08/23 12:08:26;;;;;;;1.13;0.60;;;24.90;73.50;;;;;;4895129;29;20088;-82
2021/08/23 12:10:57;;;;;;;2.53;0.60;;;24.80;73.50;;;;;;4902766;29;20482;-83
2021/08/23 12:13:27;;;;;;;1.67;0.70;;;24.50;74.20;;;;;;4920819;29;20067;-82
2021/08/23 12:16:01;;;;;;;2.00;0.43;;;24.10;74.90;;;;;;4922946;29;20052;-82
2021/08/23 12:18:30;;;;;;;1.35;0.60;;;23.80;75.60;;;;;;4901674;29;20076;-82
2021/08/23 12:21:03;;;;;;;0.93;0.50;;;23.60;76.20;;;;;;4907021;29;20056;-82
2021/08/23 12:23:51;;;;;;;2.38;0.50;;;23.70;76.40;;;;;;4918514;29;20052;-78
2021/08/23 12:26:36;;;;;;;2.22;0.60;;;23.80;75.60;;;;;;4916466;29;20810;-79
2021/08/23 12:29:13;;;;;;;0.95;0.50;;;23.70;75.80;;;;;;4932253;29;20052;-77
2021/08/23 12:31:48;;;;;;;0.70;0.40;;;23.80;76.10;;;;;;4917163;29;20556;-78
2021/08/23 12:34:28;;;;;;;1.35;0.50;;;23.80;75.50;;;;;;4915670;29;20073;-80
2021/08/23 12:36:59;;;;;;;2.00;0.60;;;23.80;75.30;;;;;;4917635;29;20122;-79
2021/08/23 12:39:27;;;;;;;2.33;0.70;;;23.80;75.30;;;;;;4915210;29;20062;-80
2021/08/23 12:42:02;;;;;;;1.52;0.40;;;23.70;75.50;;;;;;4899890;29;20064;-81
2021/08/23 12:44:29;;;;;;;1.33;0.57;;;23.70;75.50;;;;;;4916706;29;20040;-79
2021/08/23 12:46:57;;;;;;;1.15;0.50;;;23.70;75.50;;;;;;4898010;29;20131;-79
2021/08/23 12:49:24;;;;;;;1.35;0.50;;;23.70;75.30;;;;;;4917062;29;20040;-79
2021/08/23 12:51:52;;;;;;;0.70;0.40;;;23.60;75.30;;;;;;4916573;29;20078;-79
2021/08/23 12:54:20;;;;;;;0.60;0.30;;;23.60;75.20;;;;;;4915821;29;20064;-79
2021/08/23 12:56:49;;;;;;;0.93;0.30;;;23.60;75.30;;;;;;4915743;29;20067;-80
2021/08/23 12:59:16;;;;;;;0.88;0.47;;;23.70;75.10;;;;;;4898899;29;20422;-80
2021/08/23 13:01:43;;;;;;;1.63;0.50;;;23.70;75.00;;;;;;4892408;29;20056;-79
2021/08/23 13:04:11;;;;;;;0.90;0.40;;;23.80;74.80;;;;;;4910488;29;20040;-78
2021/08/23 13:06:38;;;;;;;1.08;0.30;;;23.70;74.70;;;;;;4900331;29;20129;-78
2021/08/23 13:09:05;;;;;;;1.13;0.50;;;23.60;74.50;;;;;;4901349;29;20146;-77